sensor_id;sensor_type;location;lat;lon;timestamp;P1;durP1;ratioP1;P2;durP2;ratioP2
35743;SDS011;21867;52.012;4.324;2022-07-04T00:00:59;6.40;;;2.00;;
35743;SDS011;21867;52.012;4.324;2022-07-04T00:03:27;6.00;;;2.47;;
35743;SDS011;21867;52.012;4.324;2022-07-04T00:05:54;4.40;;;2.70;;
35743;SDS011;21867;52.012;4.324;2022-07-04T00:08:23;4.50;;;1.80;;
35743;SDS011;21867;52.012;4.324;2022-07-04T00:10:52;3.57;;;1.60;;
35743;SDS011;21867;52.012;4.324;2022-07-04T00:13:19;6.50;;;2.50;;
35743;SDS011;21867;52.012;4.324;2022-07-04T00:15:46;7.53;;;2.03;;
35743;SDS011;21867;52.012;4.324;2022-07-04T00:18:14;8.23;;;2.40;;
35743;SDS011;21867;52.012;4.324;2022-07-04T00:23:48;6.07;;;2.20;;
35743;SDS011;21867;52.012;4.324;2022-07-04T00:26:15;7.10;;;3.03;;
35743;SDS011;21867;52.012;4.324;2022-07-04T00:28:42;4.13;;;1.93;;
35743;SDS011;21867;52.012;4.324;2022-07-04T00:31:10;4.57;;;1.97;;
35743;SDS011;21867;52.012;4.324;2022-07-04T00:33:37;6.50;;;2.93;;
35743;SDS011;21867;52.012;4.324;2022-07-04T00:36:05;7.03;;;2.67;;
35743;SDS011;21867;52.012;4.324;2022-07-04T00:41:11;6.43;;;2.43;;
35743;SDS011;21867;52.012;4.324;2022-07-04T00:43:38;5.07;;;2.30;;
35743;SDS011;21867;52.012;4.324;2022-07-04T00:46:25;7.87;;;2.73;;
35743;SDS011;21867;52.012;4.324;2022-07-04T00:48:53;3.70;;;2.10;;
35743;SDS011;21867;52.012;4.324;2022-07-04T00:51:20;5.13;;;2.53;;
35743;SDS011;21867;52.012;4.324;2022-07-04T00:53:53;3.50;;;2.00;;
35743;SDS011;21867;52.012;4.324;2022-07-04T00:56:23;6.17;;;1.97;;
35743;SDS011;21867;52.012;4.324;2022-07-04T00:58:50;5.40;;;2.27;;
35743;SDS011;21867;52.012;4.324;2022-07-04T01:01:18;8.20;;;2.30;;
35743;SDS011;21867;52.012;4.324;2022-07-04T01:03:46;7.10;;;2.50;;
35743;SDS011;21867;52.012;4.324;2022-07-04T01:06:13;9.43;;;2.07;;
35743;SDS011;21867;52.012;4.324;2022-07-04T01:08:41;5.17;;;2.53;;
35743;SDS011;21867;52.012;4.324;2022-07-04T01:11:09;3.63;;;2.10;;
35743;SDS011;21867;52.012;4.324;2022-07-04T01:13:38;5.20;;;2.17;;
35743;SDS011;21867;52.012;4.324;2022-07-04T01:16:06;6.37;;;1.80;;
35743;SDS011;21867;52.012;4.324;2022-07-04T01:18:42;4.20;;;2.10;;
35743;SDS011;21867;52.012;4.324;2022-07-04T01:21:29;4.00;;;1.93;;
35743;SDS011;21867;52.012;4.324;2022-07-04T01:24:03;6.37;;;2.27;;
35743;SDS011;21867;52.012;4.324;2022-07-04T01:26:30;8.00;;;2.63;;
35743;SDS011;21867;52.012;4.324;2022-07-04T01:28:57;6.80;;;2.47;;
35743;SDS011;21867;52.012;4.324;2022-07-04T01:31:26;5.13;;;2.20;;
35743;SDS011;21867;52.012;4.324;2022-07-04T01:33:53;5.60;;;2.20;;
35743;SDS011;21867;52.012;4.324;2022-07-04T01:36:21;4.17;;;2.10;;
35743;SDS011;21867;52.012;4.324;2022-07-04T01:38:50;6.27;;;2.10;;
35743;SDS011;21867;52.012;4.324;2022-07-04T01:41:17;5.00;;;2.27;;
35743;SDS011;21867;52.012;4.324;2022-07-04T01:43:44;6.43;;;2.43;;
35743;SDS011;21867;52.012;4.324;2022-07-04T01:46:12;3.97;;;2.10;;
35743;SDS011;21867;52.012;4.324;2022-07-04T01:48:39;9.10;;;2.83;;
35743;SDS011;21867;52.012;4.324;2022-07-04T01:51:07;7.50;;;2.50;;
35743;SDS011;21867;52.012;4.324;2022-07-04T01:53:39;5.53;;;2.27;;
35743;SDS011;21867;52.012;4.324;2022-07-04T01:56:08;4.93;;;2.30;;
35743;SDS011;21867;52.012;4.324;2022-07-04T01:58:35;7.83;;;2.57;;
35743;SDS011;21867;52.012;4.324;2022-07-04T02:01:02;7.20;;;2.00;;
35743;SDS011;21867;52.012;4.324;2022-07-04T02:03:30;7.57;;;2.00;;
35743;SDS011;21867;52.012;4.324;2022-07-04T02:05:57;9.60;;;2.90;;
35743;SDS011;21867;52.012;4.324;2022-07-04T02:08:24;4.80;;;2.17;;
35743;SDS011;21867;52.012;4.324;2022-07-04T02:10:52;7.83;;;2.60;;
35743;SDS011;21867;52.012;4.324;2022-07-04T02:13:20;6.03;;;2.47;;
35743;SDS011;21867;52.012;4.324;2022-07-04T02:15:48;5.73;;;2.30;;
35743;SDS011;21867;52.012;4.324;2022-07-04T02:18:15;5.67;;;2.30;;
35743;SDS011;21867;52.012;4.324;2022-07-04T02:20:42;6.27;;;1.87;;
35743;SDS011;21867;52.012;4.324;2022-07-04T02:23:10;5.47;;;2.30;;
35743;SDS011;21867;52.012;4.324;2022-07-04T02:25:37;5.67;;;2.03;;
35743;SDS011;21867;52.012;4.324;2022-07-04T02:28:04;9.23;;;2.57;;
35743;SDS011;21867;52.012;4.324;2022-07-04T02:30:33;7.33;;;2.50;;
35743;SDS011;21867;52.012;4.324;2022-07-04T02:33:00;5.37;;;2.20;;
35743;SDS011;21867;52.012;4.324;2022-07-04T02:35:27;6.70;;;2.70;;
35743;SDS011;21867;52.012;4.324;2022-07-04T02:37:55;4.37;;;2.10;;
35743;SDS011;21867;52.012;4.324;2022-07-04T02:40:22;6.90;;;2.27;;
35743;SDS011;21867;52.012;4.324;2022-07-04T02:42:50;7.10;;;2.57;;
35743;SDS011;21867;52.012;4.324;2022-07-04T02:45:17;5.73;;;1.93;;
35743;SDS011;21867;52.012;4.324;2022-07-04T02:47:46;7.03;;;2.13;;
35743;SDS011;21867;52.012;4.324;2022-07-04T02:50:14;5.93;;;2.17;;
35743;SDS011;21867;52.012;4.324;2022-07-04T02:52:41;6.60;;;2.37;;
35743;SDS011;21867;52.012;4.324;2022-07-04T02:55:08;8.47;;;2.30;;
35743;SDS011;21867;52.012;4.324;2022-07-04T02:57:36;6.37;;;1.97;;
35743;SDS011;21867;52.012;4.324;2022-07-04T03:00:03;6.17;;;2.23;;
35743;SDS011;21867;52.012;4.324;2022-07-04T03:02:31;3.53;;;1.80;;
35743;SDS011;21867;52.012;4.324;2022-07-04T03:04:59;8.57;;;2.27;;
35743;SDS011;21867;52.012;4.324;2022-07-04T03:36:52;6.73;;;2.30;;
35743;SDS011;21867;52.012;4.324;2022-07-04T03:39:19;13.43;;;2.87;;
35743;SDS011;21867;52.012;4.324;2022-07-04T03:41:47;9.60;;;3.03;;
35743;SDS011;21867;52.012;4.324;2022-07-04T03:44:14;7.63;;;2.53;;
35743;SDS011;21867;52.012;4.324;2022-07-04T03:46:42;7.87;;;2.80;;
35743;SDS011;21867;52.012;4.324;2022-07-04T03:49:09;11.10;;;2.73;;
35743;SDS011;21867;52.012;4.324;2022-07-04T03:51:36;9.00;;;3.27;;
35743;SDS011;21867;52.012;4.324;2022-07-04T03:54:05;10.23;;;2.70;;
35743;SDS011;21867;52.012;4.324;2022-07-04T03:56:32;3.97;;;2.40;;
35743;SDS011;21867;52.012;4.324;2022-07-04T03:59:00;10.50;;;2.80;;
35743;SDS011;21867;52.012;4.324;2022-07-04T04:01:27;8.37;;;2.90;;
35743;SDS011;21867;52.012;4.324;2022-07-04T04:03:54;4.43;;;2.37;;
35743;SDS011;21867;52.012;4.324;2022-07-04T04:43:09;7.37;;;2.87;;
35743;SDS011;21867;52.012;4.324;2022-07-04T04:45:36;12.13;;;3.27;;
35743;SDS011;21867;52.012;4.324;2022-07-04T04:48:04;7.87;;;3.00;;
35743;SDS011;21867;52.012;4.324;2022-07-04T04:50:31;6.90;;;2.87;;
35743;SDS011;21867;52.012;4.324;2022-07-04T04:52:59;8.40;;;2.60;;
35743;SDS011;21867;52.012;4.324;2022-07-04T04:55:26;7.87;;;2.97;;
35743;SDS011;21867;52.012;4.324;2022-07-04T04:57:53;8.27;;;3.40;;
35743;SDS011;21867;52.012;4.324;2022-07-04T05:00:22;8.87;;;3.37;;
35743;SDS011;21867;52.012;4.324;2022-07-04T05:02:49;4.67;;;2.33;;
35743;SDS011;21867;52.012;4.324;2022-07-04T05:05:17;5.70;;;2.90;;
35743;SDS011;21867;52.012;4.324;2022-07-04T05:07:44;5.90;;;3.10;;
35743;SDS011;21867;52.012;4.324;2022-07-04T05:10:11;5.60;;;2.50;;
35743;SDS011;21867;52.012;4.324;2022-07-04T05:12:39;8.33;;;2.40;;
35743;SDS011;21867;52.012;4.324;2022-07-04T05:15:06;6.20;;;2.70;;
35743;SDS011;21867;52.012;4.324;2022-07-04T05:17:35;4.47;;;3.20;;
35743;SDS011;21867;52.012;4.324;2022-07-04T05:20:03;4.57;;;2.20;;
35743;SDS011;21867;52.012;4.324;2022-07-04T05:22:30;5.97;;;2.23;;
35743;SDS011;21867;52.012;4.324;2022-07-04T05:25:01;3.80;;;2.20;;
35743;SDS011;21867;52.012;4.324;2022-07-04T05:27:29;4.70;;;2.13;;
35743;SDS011;21867;52.012;4.324;2022-07-04T05:29:58;7.23;;;2.10;;
35743;SDS011;21867;52.012;4.324;2022-07-04T05:32:26;5.90;;;2.23;;
35743;SDS011;21867;52.012;4.324;2022-07-04T05:34:55;3.67;;;2.13;;
35743;SDS011;21867;52.012;4.324;2022-07-04T05:37:22;2.53;;;1.70;;
35743;SDS011;21867;52.012;4.324;2022-07-04T05:39:49;6.90;;;3.27;;
35743;SDS011;21867;52.012;4.324;2022-07-04T05:42:17;6.33;;;3.17;;
35743;SDS011;21867;52.012;4.324;2022-07-04T05:44:44;9.13;;;2.90;;
35743;SDS011;21867;52.012;4.324;2022-07-04T05:47:12;3.60;;;1.50;;
35743;SDS011;21867;52.012;4.324;2022-07-04T05:49:40;2.60;;;2.10;;
35743;SDS011;21867;52.012;4.324;2022-07-04T05:52:08;2.20;;;1.70;;
35743;SDS011;21867;52.012;4.324;2022-07-04T05:54:36;2.17;;;1.83;;
35743;SDS011;21867;52.012;4.324;2022-07-04T05:57:03;6.10;;;2.20;;
35743;SDS011;21867;52.012;4.324;2022-07-04T05:59:30;3.20;;;1.93;;
35743;SDS011;21867;52.012;4.324;2022-07-04T06:01:58;5.33;;;1.93;;
35743;SDS011;21867;52.012;4.324;2022-07-04T06:04:25;4.20;;;1.90;;
35743;SDS011;21867;52.012;4.324;2022-07-04T06:06:52;11.43;;;1.70;;
35743;SDS011;21867;52.012;4.324;2022-07-04T06:09:21;3.33;;;1.43;;
35743;SDS011;21867;52.012;4.324;2022-07-04T06:11:48;1.60;;;1.37;;
35743;SDS011;21867;52.012;4.324;2022-07-04T06:14:16;2.33;;;1.87;;
35743;SDS011;21867;52.012;4.324;2022-07-04T06:16:43;2.57;;;1.60;;
35743;SDS011;21867;52.012;4.324;2022-07-04T06:19:10;3.10;;;1.50;;
35743;SDS011;21867;52.012;4.324;2022-07-04T06:21:38;2.83;;;1.70;;
35743;SDS011;21867;52.012;4.324;2022-07-04T06:24:05;2.40;;;1.83;;
35743;SDS011;21867;52.012;4.324;2022-07-04T06:26:34;1.67;;;1.40;;
35743;SDS011;21867;52.012;4.324;2022-07-04T06:29:01;6.30;;;2.03;;
35743;SDS011;21867;52.012;4.324;2022-07-04T06:31:28;2.30;;;1.63;;
35743;SDS011;21867;52.012;4.324;2022-07-04T06:33:55;4.97;;;1.97;;
35743;SDS011;21867;52.012;4.324;2022-07-04T06:36:23;2.10;;;1.73;;
35743;SDS011;21867;52.012;4.324;2022-07-04T06:38:50;1.50;;;1.40;;
35743;SDS011;21867;52.012;4.324;2022-07-04T06:41:18;5.93;;;1.40;;
35743;SDS011;21867;52.012;4.324;2022-07-04T06:43:47;4.20;;;2.43;;
35743;SDS011;21867;52.012;4.324;2022-07-04T06:46:14;2.07;;;1.53;;
35743;SDS011;21867;52.012;4.324;2022-07-04T06:48:41;4.87;;;1.80;;
35743;SDS011;21867;52.012;4.324;2022-07-04T06:51:09;6.90;;;1.67;;
35743;SDS011;21867;52.012;4.324;2022-07-04T06:53:36;2.93;;;2.10;;
35743;SDS011;21867;52.012;4.324;2022-07-04T06:56:05;1.97;;;1.77;;
35743;SDS011;21867;52.012;4.324;2022-07-04T06:58:33;3.60;;;1.90;;
35743;SDS011;21867;52.012;4.324;2022-07-04T07:01:01;3.80;;;1.57;;
35743;SDS011;21867;52.012;4.324;2022-07-04T07:03:29;3.30;;;1.40;;
35743;SDS011;21867;52.012;4.324;2022-07-04T07:05:56;1.57;;;1.43;;
35743;SDS011;21867;52.012;4.324;2022-07-04T07:08:26;1.80;;;1.47;;
35743;SDS011;21867;52.012;4.324;2022-07-04T07:10:53;2.47;;;1.73;;
35743;SDS011;21867;52.012;4.324;2022-07-04T07:13:21;4.97;;;1.60;;
35743;SDS011;21867;52.012;4.324;2022-07-04T07:15:49;5.60;;;1.93;;
35743;SDS011;21867;52.012;4.324;2022-07-04T07:18:17;3.90;;;2.00;;
35743;SDS011;21867;52.012;4.324;2022-07-04T07:20:45;3.17;;;2.23;;
35743;SDS011;21867;52.012;4.324;2022-07-04T07:23:15;1.53;;;1.27;;
35743;SDS011;21867;52.012;4.324;2022-07-04T07:25:42;2.30;;;2.00;;
35743;SDS011;21867;52.012;4.324;2022-07-04T07:28:09;3.43;;;2.00;;
35743;SDS011;21867;52.012;4.324;2022-07-04T07:30:37;5.07;;;1.80;;
35743;SDS011;21867;52.012;4.324;2022-07-04T07:33:04;2.70;;;1.87;;
35743;SDS011;21867;52.012;4.324;2022-07-04T07:35:33;2.67;;;1.60;;
35743;SDS011;21867;52.012;4.324;2022-07-04T07:38:00;1.23;;;1.03;;
35743;SDS011;21867;52.012;4.324;2022-07-04T07:40:27;1.53;;;1.20;;
35743;SDS011;21867;52.012;4.324;2022-07-04T07:42:55;2.17;;;1.40;;
35743;SDS011;21867;52.012;4.324;2022-07-04T07:45:22;7.70;;;1.87;;
35743;SDS011;21867;52.012;4.324;2022-07-04T07:47:49;4.40;;;2.17;;
35743;SDS011;21867;52.012;4.324;2022-07-04T07:50:17;2.93;;;1.80;;
35743;SDS011;21867;52.012;4.324;2022-07-04T07:52:45;3.33;;;1.80;;
35743;SDS011;21867;52.012;4.324;2022-07-04T07:55:31;2.57;;;2.33;;
35743;SDS011;21867;52.012;4.324;2022-07-04T07:59:03;5.70;;;2.10;;
35743;SDS011;21867;52.012;4.324;2022-07-04T08:01:30;3.50;;;1.80;;
35743;SDS011;21867;52.012;4.324;2022-07-04T08:03:58;4.63;;;1.83;;
35743;SDS011;21867;52.012;4.324;2022-07-04T08:06:25;3.17;;;1.50;;
35743;SDS011;21867;52.012;4.324;2022-07-04T08:08:54;1.87;;;1.53;;
35743;SDS011;21867;52.012;4.324;2022-07-04T08:11:21;4.70;;;1.97;;
35743;SDS011;21867;52.012;4.324;2022-07-04T08:13:50;3.80;;;1.80;;
35743;SDS011;21867;52.012;4.324;2022-07-04T08:16:17;3.50;;;1.93;;
35743;SDS011;21867;52.012;4.324;2022-07-04T08:19:05;5.13;;;1.87;;
35743;SDS011;21867;52.012;4.324;2022-07-04T08:21:32;5.13;;;1.77;;
35743;SDS011;21867;52.012;4.324;2022-07-04T08:24:36;2.23;;;1.17;;
35743;SDS011;21867;52.012;4.324;2022-07-04T08:27:08;2.07;;;1.60;;
35743;SDS011;21867;52.012;4.324;2022-07-04T08:29:41;2.47;;;2.03;;
35743;SDS011;21867;52.012;4.324;2022-07-04T08:32:09;2.40;;;1.60;;
35743;SDS011;21867;52.012;4.324;2022-07-04T08:34:36;1.77;;;1.37;;
35743;SDS011;21867;52.012;4.324;2022-07-04T08:37:03;5.63;;;1.40;;
35743;SDS011;21867;52.012;4.324;2022-07-04T08:39:31;1.97;;;1.70;;
35743;SDS011;21867;52.012;4.324;2022-07-04T08:42:01;2.00;;;1.30;;
35743;SDS011;21867;52.012;4.324;2022-07-04T08:44:35;5.43;;;2.10;;
35743;SDS011;21867;52.012;4.324;2022-07-04T08:47:04;2.30;;;1.60;;
35743;SDS011;21867;52.012;4.324;2022-07-04T08:49:33;3.10;;;1.60;;
35743;SDS011;21867;52.012;4.324;2022-07-04T08:52:02;3.33;;;1.50;;
35743;SDS011;21867;52.012;4.324;2022-07-04T08:54:31;1.90;;;1.33;;
35743;SDS011;21867;52.012;4.324;2022-07-04T08:57:05;1.00;;;1.00;;
35743;SDS011;21867;52.012;4.324;2022-07-04T08:59:52;2.40;;;1.40;;
35743;SDS011;21867;52.012;4.324;2022-07-04T09:02:19;3.90;;;1.87;;
35743;SDS011;21867;52.012;4.324;2022-07-04T09:04:47;2.37;;;1.63;;
35743;SDS011;21867;52.012;4.324;2022-07-04T09:07:15;1.83;;;1.53;;
35743;SDS011;21867;52.012;4.324;2022-07-04T09:09:43;1.83;;;1.47;;
35743;SDS011;21867;52.012;4.324;2022-07-04T10:09:43;3.90;;;1.23;;
35743;SDS011;21867;52.012;4.324;2022-07-04T10:12:11;2.83;;;1.50;;
35743;SDS011;21867;52.012;4.324;2022-07-04T10:14:51;3.17;;;1.50;;
35743;SDS011;21867;52.012;4.324;2022-07-04T10:17:18;3.60;;;1.20;;
35743;SDS011;21867;52.012;4.324;2022-07-04T10:19:46;1.90;;;1.23;;
35743;SDS011;21867;52.012;4.324;2022-07-04T10:22:14;2.73;;;1.40;;
35743;SDS011;21867;52.012;4.324;2022-07-04T10:24:41;2.50;;;1.37;;
35743;SDS011;21867;52.012;4.324;2022-07-04T10:30:13;2.77;;;1.10;;
35743;SDS011;21867;52.012;4.324;2022-07-04T10:32:46;2.83;;;1.40;;
35743;SDS011;21867;52.012;4.324;2022-07-04T10:35:14;3.17;;;1.30;;
35743;SDS011;21867;52.012;4.324;2022-07-04T10:38:01;3.07;;;1.20;;
35743;SDS011;21867;52.012;4.324;2022-07-04T10:40:41;4.17;;;1.13;;
35743;SDS011;21867;52.012;4.324;2022-07-04T10:48:32;4.33;;;1.43;;
35743;SDS011;21867;52.012;4.324;2022-07-04T10:51:00;1.23;;;1.13;;
35743;SDS011;21867;52.012;4.324;2022-07-04T10:53:28;5.27;;;1.50;;
35743;SDS011;21867;52.012;4.324;2022-07-04T10:55:59;3.60;;;1.97;;
35743;SDS011;21867;52.012;4.324;2022-07-04T10:58:37;5.40;;;1.50;;
35743;SDS011;21867;52.012;4.324;2022-07-04T11:01:11;4.00;;;1.60;;
35743;SDS011;21867;52.012;4.324;2022-07-04T11:03:45;2.37;;;1.23;;
35743;SDS011;21867;52.012;4.324;2022-07-04T11:09:12;4.97;;;1.50;;
35743;SDS011;21867;52.012;4.324;2022-07-04T11:11:50;1.90;;;1.30;;
35743;SDS011;21867;52.012;4.324;2022-07-04T11:17:03;2.90;;;1.10;;
35743;SDS011;21867;52.012;4.324;2022-07-04T11:19:33;2.67;;;1.57;;
35743;SDS011;21867;52.012;4.324;2022-07-04T11:30:14;1.83;;;1.20;;
35743;SDS011;21867;52.012;4.324;2022-07-04T11:32:41;1.77;;;1.30;;
35743;SDS011;21867;52.012;4.324;2022-07-04T11:35:10;4.47;;;1.80;;
35743;SDS011;21867;52.012;4.324;2022-07-04T11:40:52;3.40;;;1.60;;
35743;SDS011;21867;52.012;4.324;2022-07-04T11:43:20;3.93;;;1.23;;
35743;SDS011;21867;52.012;4.324;2022-07-04T11:45:48;1.53;;;1.30;;
35743;SDS011;21867;52.012;4.324;2022-07-04T11:48:20;2.43;;;1.10;;
35743;SDS011;21867;52.012;4.324;2022-07-04T11:50:48;1.73;;;1.33;;
35743;SDS011;21867;52.012;4.324;2022-07-04T11:53:16;3.97;;;1.10;;
35743;SDS011;21867;52.012;4.324;2022-07-04T11:55:59;1.00;;;1.00;;
35743;SDS011;21867;52.012;4.324;2022-07-04T11:58:37;3.63;;;1.00;;
35743;SDS011;21867;52.012;4.324;2022-07-04T12:01:05;7.40;;;1.60;;
35743;SDS011;21867;52.012;4.324;2022-07-04T12:03:32;3.47;;;1.40;;
35743;SDS011;21867;52.012;4.324;2022-07-04T12:09:52;2.77;;;1.10;;
35743;SDS011;21867;52.012;4.324;2022-07-04T12:12:19;2.53;;;1.27;;
35743;SDS011;21867;52.012;4.324;2022-07-04T12:14:57;4.87;;;1.20;;
35743;SDS011;21867;52.012;4.324;2022-07-04T12:17:29;1.90;;;1.20;;
35743;SDS011;21867;52.012;4.324;2022-07-04T12:19:57;1.98;;;1.02;;
35743;SDS011;21867;52.012;4.324;2022-07-04T12:22:28;1.57;;;1.00;;
35743;SDS011;21867;52.012;4.324;2022-07-04T12:25:19;3.20;;;1.50;;
35743;SDS011;21867;52.012;4.324;2022-07-04T12:27:51;1.93;;;1.10;;
35743;SDS011;21867;52.012;4.324;2022-07-04T12:30:18;2.05;;;1.48;;
35743;SDS011;21867;52.012;4.324;2022-07-04T12:42:15;4.00;;;1.37;;
35743;SDS011;21867;52.012;4.324;2022-07-04T12:44:43;6.27;;;1.47;;
35743;SDS011;21867;52.012;4.324;2022-07-04T12:47:11;2.63;;;1.30;;
35743;SDS011;21867;52.012;4.324;2022-07-04T12:49:47;1.42;;;1.23;;
35743;SDS011;21867;52.012;4.324;2022-07-04T12:52:15;2.07;;;1.10;;
35743;SDS011;21867;52.012;4.324;2022-07-04T12:55:01;4.00;;;1.10;;
35743;SDS011;21867;52.012;4.324;2022-07-04T12:57:30;3.67;;;1.30;;
35743;SDS011;21867;52.012;4.324;2022-07-04T12:59:57;8.52;;;1.65;;
35743;SDS011;21867;52.012;4.324;2022-07-04T13:02:50;5.50;;;1.40;;
35743;SDS011;21867;52.012;4.324;2022-07-04T13:05:21;6.63;;;1.85;;
35743;SDS011;21867;52.012;4.324;2022-07-04T13:08:00;4.37;;;1.30;;
35743;SDS011;21867;52.012;4.324;2022-07-04T13:10:34;3.28;;;1.00;;
35743;SDS011;21867;52.012;4.324;2022-07-04T13:13:03;2.88;;;1.20;;
35743;SDS011;21867;52.012;4.324;2022-07-04T13:15:30;2.22;;;1.27;;
35743;SDS011;21867;52.012;4.324;2022-07-04T13:17:57;1.88;;;1.67;;
35743;SDS011;21867;52.012;4.324;2022-07-04T13:20:24;2.28;;;1.30;;
35743;SDS011;21867;52.012;4.324;2022-07-04T13:22:52;1.30;;;1.20;;
35743;SDS011;21867;52.012;4.324;2022-07-04T13:25:19;2.00;;;1.30;;
35743;SDS011;21867;52.012;4.324;2022-07-04T13:27:47;3.03;;;1.13;;
35743;SDS011;21867;52.012;4.324;2022-07-04T13:30:15;5.13;;;1.50;;
35743;SDS011;21867;52.012;4.324;2022-07-04T13:32:43;4.20;;;1.47;;
35743;SDS011;21867;52.012;4.324;2022-07-04T13:35:22;3.08;;;1.48;;
35743;SDS011;21867;52.012;4.324;2022-07-04T13:37:58;5.63;;;1.48;;
35743;SDS011;21867;52.012;4.324;2022-07-04T13:40:31;7.93;;;1.37;;
35743;SDS011;21867;52.012;4.324;2022-07-04T13:42:58;1.95;;;1.27;;
35743;SDS011;21867;52.012;4.324;2022-07-04T13:45:28;2.38;;;1.27;;
35743;SDS011;21867;52.012;4.324;2022-07-04T13:47:56;2.63;;;1.20;;
35743;SDS011;21867;52.012;4.324;2022-07-04T13:50:23;1.52;;;1.17;;
35743;SDS011;21867;52.012;4.324;2022-07-04T13:52:50;3.67;;;1.20;;
35743;SDS011;21867;52.012;4.324;2022-07-04T14:26:14;7.23;;;1.50;;
35743;SDS011;21867;52.012;4.324;2022-07-04T14:28:42;2.33;;;1.10;;
35743;SDS011;21867;52.012;4.324;2022-07-04T14:31:09;3.13;;;1.55;;
35743;SDS011;21867;52.012;4.324;2022-07-04T14:33:37;3.30;;;1.52;;
35743;SDS011;21867;52.012;4.324;2022-07-04T14:36:05;1.85;;;1.02;;
35743;SDS011;21867;52.012;4.324;2022-07-04T14:38:32;13.38;;;1.63;;
35743;SDS011;21867;52.012;4.324;2022-07-04T14:41:01;1.98;;;1.45;;
35743;SDS011;21867;52.012;4.324;2022-07-04T14:43:30;4.88;;;1.70;;
35743;SDS011;21867;52.012;4.324;2022-07-04T14:45:57;1.92;;;1.38;;
35743;SDS011;21867;52.012;4.324;2022-07-04T14:48:24;5.50;;;2.40;;
35743;SDS011;21867;52.012;4.324;2022-07-04T14:50:52;3.83;;;1.50;;
35743;SDS011;21867;52.012;4.324;2022-07-04T14:53:19;1.23;;;1.10;;
35743;SDS011;21867;52.012;4.324;2022-07-04T14:55:47;3.15;;;1.50;;
35743;SDS011;21867;52.012;4.324;2022-07-04T14:58:14;2.13;;;1.00;;
35743;SDS011;21867;52.012;4.324;2022-07-04T15:00:43;4.03;;;1.20;;
35743;SDS011;21867;52.012;4.324;2022-07-04T15:03:10;3.28;;;1.27;;
35743;SDS011;21867;52.012;4.324;2022-07-04T15:05:38;1.65;;;1.08;;
35743;SDS011;21867;52.012;4.324;2022-07-04T15:08:08;2.65;;;1.40;;
35743;SDS011;21867;52.012;4.324;2022-07-04T15:10:35;2.25;;;1.10;;
35743;SDS011;21867;52.012;4.324;2022-07-04T15:13:30;2.13;;;0.95;;
35743;SDS011;21867;52.012;4.324;2022-07-04T15:15:59;3.30;;;1.35;;
35743;SDS011;21867;52.012;4.324;2022-07-04T15:18:46;1.95;;;1.27;;
35743;SDS011;21867;52.012;4.324;2022-07-04T15:21:13;3.10;;;1.20;;
35743;SDS011;21867;52.012;4.324;2022-07-04T15:23:41;2.60;;;1.15;;
35743;SDS011;21867;52.012;4.324;2022-07-04T15:26:08;4.07;;;1.17;;
35743;SDS011;21867;52.012;4.324;2022-07-04T15:28:35;2.25;;;1.10;;
35743;SDS011;21867;52.012;4.324;2022-07-04T15:31:04;1.58;;;1.13;;
35743;SDS011;21867;52.012;4.324;2022-07-04T15:33:32;1.75;;;1.20;;
35743;SDS011;21867;52.012;4.324;2022-07-04T15:35:59;3.42;;;1.35;;
35743;SDS011;21867;52.012;4.324;2022-07-04T15:38:26;4.07;;;1.60;;
35743;SDS011;21867;52.012;4.324;2022-07-04T15:40:54;0.93;;;0.85;;
35743;SDS011;21867;52.012;4.324;2022-07-04T15:46:22;1.48;;;1.15;;
35743;SDS011;21867;52.012;4.324;2022-07-04T15:48:52;2.03;;;1.50;;
35743;SDS011;21867;52.012;4.324;2022-07-04T15:51:20;1.15;;;1.05;;
35743;SDS011;21867;52.012;4.324;2022-07-04T15:54:07;1.48;;;1.08;;
35743;SDS011;21867;52.012;4.324;2022-07-04T15:56:35;1.88;;;1.23;;
35743;SDS011;21867;52.012;4.324;2022-07-04T15:59:02;2.15;;;1.10;;
35743;SDS011;21867;52.012;4.324;2022-07-04T16:01:31;3.45;;;1.85;;
35743;SDS011;21867;52.012;4.324;2022-07-04T16:03:58;2.78;;;1.35;;
35743;SDS011;21867;52.012;4.324;2022-07-04T16:06:27;3.22;;;1.25;;
35743;SDS011;21867;52.012;4.324;2022-07-04T16:08:55;3.53;;;1.33;;
35743;SDS011;21867;52.012;4.324;2022-07-04T16:11:22;2.85;;;1.38;;
35743;SDS011;21867;52.012;4.324;2022-07-04T16:13:50;2.05;;;1.27;;
35743;SDS011;21867;52.012;4.324;2022-07-04T16:16:17;4.97;;;1.25;;
35743;SDS011;21867;52.012;4.324;2022-07-04T16:18:46;3.05;;;1.20;;
35743;SDS011;21867;52.012;4.324;2022-07-04T16:21:13;3.67;;;1.30;;
35743;SDS011;21867;52.012;4.324;2022-07-04T16:23:40;1.73;;;1.13;;
35743;SDS011;21867;52.012;4.324;2022-07-04T16:26:08;5.82;;;2.03;;
35743;SDS011;21867;52.012;4.324;2022-07-04T16:28:35;1.30;;;1.20;;
35743;SDS011;21867;52.012;4.324;2022-07-04T16:31:03;1.73;;;1.10;;
35743;SDS011;21867;52.012;4.324;2022-07-04T16:33:36;2.13;;;1.70;;
35743;SDS011;21867;52.012;4.324;2022-07-04T16:36:05;3.22;;;1.40;;
35743;SDS011;21867;52.012;4.324;2022-07-04T16:38:32;2.58;;;0.98;;
35743;SDS011;21867;52.012;4.324;2022-07-04T16:41:00;1.42;;;1.10;;
35743;SDS011;21867;52.012;4.324;2022-07-04T16:43:27;1.30;;;1.20;;
35743;SDS011;21867;52.012;4.324;2022-07-04T16:45:54;3.00;;;1.00;;
35743;SDS011;21867;52.012;4.324;2022-07-04T16:48:22;3.35;;;1.70;;
35743;SDS011;21867;52.012;4.324;2022-07-04T16:50:49;5.43;;;2.28;;
35743;SDS011;21867;52.012;4.324;2022-07-04T16:53:18;3.08;;;1.20;;
35743;SDS011;21867;52.012;4.324;2022-07-04T16:55:45;6.35;;;1.45;;
35743;SDS011;21867;52.012;4.324;2022-07-04T16:58:12;3.00;;;1.55;;
35743;SDS011;21867;52.012;4.324;2022-07-04T17:00:40;6.78;;;2.47;;
35743;SDS011;21867;52.012;4.324;2022-07-04T17:03:07;4.22;;;1.45;;
35743;SDS011;21867;52.012;4.324;2022-07-04T17:05:34;4.65;;;1.83;;
35743;SDS011;21867;52.012;4.324;2022-07-04T17:08:02;9.00;;;1.85;;
35743;SDS011;21867;52.012;4.324;2022-07-04T17:10:30;2.80;;;1.30;;
35743;SDS011;21867;52.012;4.324;2022-07-04T17:12:58;2.78;;;1.42;;
35743;SDS011;21867;52.012;4.324;2022-07-04T17:15:25;3.28;;;1.88;;
35743;SDS011;21867;52.012;4.324;2022-07-04T17:17:52;0.95;;;0.80;;
35743;SDS011;21867;52.012;4.324;2022-07-04T17:20:20;1.80;;;1.27;;
35743;SDS011;21867;52.012;4.324;2022-07-04T17:22:47;2.85;;;1.70;;
35743;SDS011;21867;52.012;4.324;2022-07-04T17:25:14;2.40;;;1.50;;
35743;SDS011;21867;52.012;4.324;2022-07-04T17:27:43;3.47;;;1.63;;
35743;SDS011;21867;52.012;4.324;2022-07-04T17:30:11;2.58;;;1.30;;
35743;SDS011;21867;52.012;4.324;2022-07-04T17:32:41;2.75;;;1.42;;
35743;SDS011;21867;52.012;4.324;2022-07-04T17:35:08;1.70;;;1.60;;
35743;SDS011;21867;52.012;4.324;2022-07-04T17:37:36;1.50;;;1.38;;
35743;SDS011;21867;52.012;4.324;2022-07-04T17:40:03;3.35;;;1.73;;
35743;SDS011;21867;52.012;4.324;2022-07-04T17:42:31;3.45;;;1.50;;
35743;SDS011;21867;52.012;4.324;2022-07-04T17:45:03;3.17;;;1.73;;
35743;SDS011;21867;52.012;4.324;2022-07-04T17:47:31;10.55;;;3.08;;
35743;SDS011;21867;52.012;4.324;2022-07-04T17:49:59;5.43;;;2.03;;
35743;SDS011;21867;52.012;4.324;2022-07-04T17:52:26;2.55;;;1.60;;
35743;SDS011;21867;52.012;4.324;2022-07-04T17:54:53;2.38;;;1.55;;
35743;SDS011;21867;52.012;4.324;2022-07-04T17:57:21;4.80;;;1.63;;
35743;SDS011;21867;52.012;4.324;2022-07-04T17:59:48;2.05;;;1.50;;
35743;SDS011;21867;52.012;4.324;2022-07-04T18:04:59;4.65;;;1.60;;
35743;SDS011;21867;52.012;4.324;2022-07-04T18:07:27;4.28;;;1.80;;
35743;SDS011;21867;52.012;4.324;2022-07-04T18:09:54;4.50;;;1.67;;
35743;SDS011;21867;52.012;4.324;2022-07-04T18:12:22;1.75;;;1.45;;
35743;SDS011;21867;52.012;4.324;2022-07-04T18:14:55;2.15;;;1.55;;
35743;SDS011;21867;52.012;4.324;2022-07-04T18:17:28;4.68;;;1.50;;
35743;SDS011;21867;52.012;4.324;2022-07-04T18:19:59;3.63;;;1.80;;
35743;SDS011;21867;52.012;4.324;2022-07-04T18:22:32;1.10;;;1.00;;
35743;SDS011;21867;52.012;4.324;2022-07-04T18:24:59;1.67;;;1.38;;